Time;durP1;ratioP1;P1;durP2;ratioP2;P2;SDS_P1;SDS_P2;PMS_P1;PMS_P2;Temp;Humidity;BMP_temperature;BMP_pressure;BME280_temperature;BME280_humidity;BME280_pressure;Samples;Min_cycle;Max_cycle;Signal;HPM_P1;HPM_P2
2021/12/03 00:00:39;;;;;;;9.17;3.10;;;;;;;-2.93;85.55;99817.56;5023821;28;20128;-71
2021/12/03 00:03:06;;;;;;;10.45;3.20;;;;;;;-2.93;85.83;99825.31;5024110;28;20044;-71
2021/12/03 00:05:32;;;;;;;10.30;3.07;;;;;;;-2.86;86.69;99828.97;5025575;28;20063;-71
2021/12/03 00:07:57;;;;;;;9.63;2.60;;;;;;;-2.83;87.04;99833.38;5028176;28;20077;-72
2021/12/03 00:10:25;;;;;;;7.83;2.67;;;;;;;-2.81;87.06;99837.78;5027705;28;20037;-72
2021/12/03 00:12:52;;;;;;;9.20;2.87;;;;;;;-2.74;87.46;99844.06;5028663;28;20047;-72
2021/12/03 00:15:18;;;;;;;10.07;2.70;;;;;;;-2.73;86.77;99846.66;5029534;28;20044;-72
2021/12/03 00:17:44;;;;;;;7.70;2.77;;;;;;;-2.77;86.85;99847.41;5028849;28;20029;-72
2021/12/03 00:20:13;;;;;;;7.10;2.43;;;;;;;-2.73;86.13;99856.13;5030162;28;20530;-72
2021/12/03 00:22:40;;;;;;;8.43;2.60;;;;;;;-2.78;86.97;99868.88;5021064;28;20038;-72
2021/12/03 00:25:06;;;;;;;8.10;3.87;;;;;;;-2.78;86.96;99868.00;5026898;28;20169;-71
2021/12/03 00:27:32;;;;;;;8.37;2.50;;;;;;;-2.73;87.11;99882.84;5023649;28;20067;-71
2021/12/03 00:29:57;;;;;;;10.80;2.33;;;;;;;-2.67;87.67;99885.66;5027771;28;20137;-72
2021/12/03 00:32:22;;;;;;;8.47;2.43;;;;;;;-2.55;87.81;99897.25;5028049;28;20029;-71
2021/12/03 00:34:48;;;;;;;11.30;2.80;;;;;;;-2.51;87.15;99904.31;5025668;28;20034;-71
2021/12/03 00:37:13;;;;;;;8.40;2.63;;;;;;;-2.51;87.07;99902.59;5026857;28;20036;-71
2021/12/03 00:39:38;;;;;;;6.20;2.43;;;;;;;-2.50;87.15;99906.91;5024687;28;20106;-72
2021/12/03 00:42:04;;;;;;;8.67;2.40;;;;;;;-2.47;86.82;99898.41;5025045;28;20112;-71
2021/12/03 00:44:30;;;;;;;5.50;2.00;;;;;;;-2.44;87.39;99906.25;5029654;28;20043;-71
2021/12/03 00:46:58;;;;;;;6.90;2.60;;;;;;;-2.44;86.73;99906.25;5029558;28;20380;-71
2021/12/03 00:49:25;;;;;;;8.40;2.73;;;;;;;-2.48;86.35;99904.41;5026714;28;20087;-71
2021/12/03 00:51:50;;;;;;;8.90;2.13;;;;;;;-2.53;86.81;99911.13;5026874;28;20116;-71
2021/12/03 00:54:16;;;;;;;9.00;2.57;;;;;;;-2.50;86.79;99918.97;5030965;28;20587;-71
2021/12/03 00:56:42;;;;;;;6.20;2.53;;;;;;;-2.51;86.30;99914.63;5028067;28;20040;-71
2021/12/03 00:59:07;;;;;;;7.67;2.43;;;;;;;-2.53;86.75;99918.84;5030767;28;20403;-72
2021/12/03 01:01:33;;;;;;;8.80;2.80;;;;;;;-2.56;86.80;99911.88;5032549;28;20483;-72
2021/12/03 01:03:59;;;;;;;11.10;2.67;;;;;;;-2.61;86.92;99917.72;5032955;28;20038;-72
2021/12/03 01:06:24;;;;;;;9.70;2.17;;;;;;;-2.64;86.20;99918.47;5029800;28;20203;-72
2021/12/03 01:08:49;;;;;;;8.70;2.57;;;;;;;-2.70;86.49;99921.72;5032649;28;20038;-72
2021/12/03 01:11:15;;;;;;;7.30;2.50;;;;;;;-2.73;86.27;99915.53;5034076;28;20025;-72
2021/12/03 01:13:42;;;;;;;7.33;2.63;;;;;;;-2.74;87.05;99919.81;5030052;28;20060;-71
2021/12/03 01:16:10;;;;;;;8.60;2.60;;;;;;;-2.74;87.39;99916.38;5024370;28;20042;-72
2021/12/03 01:18:37;;;;;;;7.00;2.80;;;;;;;-2.76;86.47;99911.13;5027282;28;20120;-72
2021/12/03 01:21:04;;;;;;;7.73;2.30;;;;;;;-2.81;87.13;99917.81;5027596;28;20099;-72
2021/12/03 01:23:30;;;;;;;8.17;2.40;;;;;;;-2.83;87.23;99919.47;5031891;28;20025;-72
2021/12/03 01:25:57;;;;;;;7.40;2.50;;;;;;;-2.85;87.07;99921.13;5030437;28;20384;-71
2021/12/03 01:28:22;;;;;;;6.87;2.77;;;;;;;-2.85;87.45;99928.00;5032019;28;20041;-72
2021/12/03 01:30:48;;;;;;;9.30;2.80;;;;;;;-2.89;87.47;99917.53;5032624;28;20446;-71
2021/12/03 01:33:14;;;;;;;7.63;3.23;;;;;;;-2.84;87.94;99924.59;5032252;28;20025;-72
2021/12/03 01:35:39;;;;;;;7.93;3.17;;;;;;;-2.82;87.98;99928.13;5029695;28;20037;-72
2021/12/03 01:38:06;;;;;;;8.77;2.83;;;;;;;-2.79;87.24;99917.91;5033398;28;20140;-71
2021/12/03 01:40:34;;;;;;;7.60;2.90;;;;;;;-2.82;87.70;99915.22;5029885;28;20487;-71
2021/12/03 01:43:00;;;;;;;11.07;3.47;;;;;;;-2.81;88.36;99915.25;5029406;28;20099;-71
2021/12/03 01:45:29;;;;;;;7.47;3.23;;;;;;;-2.81;87.70;99919.53;5028586;28;20033;-71
2021/12/03 01:47:55;;;;;;;9.97;3.47;;;;;;;-2.87;87.41;99915.91;5028313;28;20033;-71
2021/12/03 01:50:48;;;;;;;10.53;3.33;;;;;;;-2.92;86.74;99916.56;5031577;28;20043;-72
2021/12/03 01:53:17;;;;;;;10.43;3.72;;;;;;;-2.95;87.68;99921.59;5028733;28;20057;-72
2021/12/03 01:55:44;;;;;;;7.90;3.40;;;;;;;-2.96;87.33;99919.81;5032239;28;20065;-71
2021/12/03 01:58:11;;;;;;;7.73;3.37;;;;;;;-2.97;87.15;99921.53;5031536;28;20042;-71
2021/12/03 02:00:41;;;;;;;9.40;3.17;;;;;;;-3.00;87.53;99912.81;5032988;28;20041;-71
2021/12/03 02:03:08;;;;;;;7.97;3.30;;;;;;;-3.02;87.63;99922.19;5032369;28;20041;-71
2021/12/03 02:05:34;;;;;;;11.20;3.37;;;;;;;-3.02;87.40;99917.91;5025973;28;20034;-71
2021/12/03 02:08:00;;;;;;;9.97;3.80;;;;;;;-3.02;87.53;99925.63;5026523;28;20112;-71
2021/12/03 02:10:26;;;;;;;12.47;4.73;;;;;;;-3.00;88.11;99926.59;5030402;28;20136;-72
2021/12/03 02:12:51;;;;;;;11.90;4.40;;;;;;;-2.97;88.15;99934.44;5033214;28;20044;-71
2021/12/03 02:15:18;;;;;;;12.90;3.97;;;;;;;-2.95;88.35;99926.78;5029059;28;20120;-71
2021/12/03 02:17:44;;;;;;;13.00;3.87;;;;;;;-2.95;87.57;99927.66;5029415;28;20095;-71
2021/12/03 02:20:11;;;;;;;10.63;4.67;;;;;;;-2.95;87.42;99930.22;5031611;28;20044;-71
2021/12/03 02:22:38;;;;;;;8.90;3.80;;;;;;;-2.92;87.65;99930.34;5032914;28;20064;-71
2021/12/03 02:25:06;;;;;;;7.07;3.90;;;;;;;-2.93;87.95;99938.03;5032128;28;20045;-71
2021/12/03 02:27:32;;;;;;;12.17;4.20;;;;;;;-2.95;87.44;99940.56;5027201;28;20426;-72
2021/12/03 02:29:57;;;;;;;11.60;4.57;;;;;;;-2.97;87.65;99943.91;5025183;28;20042;-72
2021/12/03 02:32:22;;;;;;;11.37;5.17;;;;;;;-2.96;87.63;99945.66;5032611;28;20079;-71
2021/12/03 02:34:48;;;;;;;13.63;5.03;;;;;;;-2.95;88.01;99948.31;5029520;28;20036;-71
2021/12/03 02:37:13;;;;;;;8.20;3.53;;;;;;;-2.91;88.94;99950.19;5027528;28;20032;-71
2021/12/03 02:39:38;;;;;;;14.37;5.30;;;;;;;-2.88;87.99;99944.25;5028175;28;20088;-71
2021/12/03 02:42:04;;;;;;;12.43;4.73;;;;;;;-2.87;88.68;99938.28;5032591;28;20044;-71
2021/12/03 02:44:30;;;;;;;13.27;5.40;;;;;;;-2.83;88.65;99932.38;5030971;28;20033;-71
2021/12/03 02:46:55;;;;;;;18.07;4.77;;;;;;;-2.77;88.34;99929.19;5027099;28;20060;-71
2021/12/03 02:49:20;;;;;;;9.53;4.10;;;;;;;-2.77;89.11;99945.53;5031543;28;20041;-71
2021/12/03 02:51:46;;;;;;;12.77;4.57;;;;;;;-2.74;88.72;99939.63;5031215;28;20052;-72
2021/12/03 02:54:12;;;;;;;13.27;4.27;;;;;;;-2.73;89.16;99936.19;5031957;28;20113;-71
2021/12/03 02:56:37;;;;;;;11.90;5.57;;;;;;;-2.77;87.89;99936.91;5026955;28;20136;-71
2021/12/03 02:59:03;;;;;;;11.10;5.40;;;;;;;-2.81;88.34;99943.66;5021768;28;20743;-71
2021/12/03 03:01:29;;;;;;;11.90;4.97;;;;;;;-2.80;88.49;99952.28;5028066;28;20037;-71
2021/12/03 03:03:54;;;;;;;11.07;4.80;;;;;;;-2.81;88.62;99946.25;5032347;28;20056;-71
2021/12/03 03:06:19;;;;;;;12.10;5.27;;;;;;;-2.85;87.79;99949.53;5031816;28;20842;-71
2021/12/03 03:08:47;;;;;;;13.47;4.47;;;;;;;-2.87;87.89;99946.88;5032812;28;20478;-71
2021/12/03 03:11:12;;;;;;;10.40;4.50;;;;;;;-2.90;87.01;99945.91;5032610;28;20029;-71
2021/12/03 03:13:38;;;;;;;16.70;5.33;;;;;;;-2.94;87.82;99952.63;5031122;28;20050;-72
2021/12/03 03:16:05;;;;;;;13.40;5.00;;;;;;;-2.99;87.46;99953.28;5028662;28;20033;-72
2021/12/03 03:18:30;;;;;;;11.87;4.17;;;;;;;-3.08;87.38;99952.09;5025705;28;20116;-72
2021/12/03 03:20:59;;;;;;;9.57;4.47;;;;;;;-3.09;87.48;99952.06;5032226;28;20144;-71
2021/12/03 03:23:25;;;;;;;11.23;5.47;;;;;;;-3.11;87.43;99954.56;5027712;28;20091;-71
2021/12/03 03:25:51;;;;;;;8.97;4.17;;;;;;;-3.11;86.96;99954.56;5032109;28;20041;-71
2021/12/03 03:28:18;;;;;;;11.30;4.83;;;;;;;-3.12;87.68;99951.91;5032327;28;20044;-71
2021/12/03 03:30:46;;;;;;;9.63;4.00;;;;;;;-3.11;87.65;99951.13;5032184;28;20041;-71
2021/12/03 03:33:11;;;;;;;12.63;4.20;;;;;;;-3.15;86.92;99955.25;5032330;28;20033;-71
2021/12/03 03:35:37;;;;;;;12.47;5.23;;;;;;;-3.12;87.85;99955.41;5031942;28;20033;-72
2021/12/03 03:38:03;;;;;;;12.03;4.97;;;;;;;-3.08;87.66;99958.97;5032110;28;20026;-71
2021/12/03 03:40:29;;;;;;;12.93;5.27;;;;;;;-3.01;87.50;99967.81;5031690;28;20112;-72
2021/12/03 03:42:57;;;;;;;9.13;5.00;;;;;;;-2.98;87.24;99968.84;5031947;28;20610;-71
2021/12/03 03:45:23;;;;;;;10.20;5.23;;;;;;;-2.97;87.77;99969.72;5031633;28;20086;-71
2021/12/03 03:47:49;;;;;;;13.83;6.20;;;;;;;-3.00;86.92;99957.56;5031867;28;20576;-71
2021/12/03 03:50:16;;;;;;;12.33;5.60;;;;;;;-2.96;87.23;99958.56;5031812;28;20065;-71
2021/12/03 03:52:43;;;;;;;12.17;5.20;;;;;;;-2.96;87.34;99958.56;5031912;28;20030;-71
2021/12/03 03:55:10;;;;;;;14.57;4.77;;;;;;;-2.92;86.94;99957.88;5030084;28;20029;-71
2021/12/03 03:57:36;;;;;;;11.50;4.80;;;;;;;-2.87;87.82;99964.97;5031805;28;20029;-71
2021/12/03 04:00:04;;;;;;;10.77;4.60;;;;;;;-2.82;86.73;99954.81;5030214;28;20041;-71
2021/12/03 04:02:37;;;;;;;12.13;5.33;;;;;;;-2.73;87.76;99962.03;5031765;28;20036;-71
2021/12/03 04:05:03;;;;;;;16.60;5.93;;;;;;;-2.62;86.78;99957.25;5031410;28;20539;-71
2021/12/03 04:07:28;;;;;;;12.83;5.40;;;;;;;-2.60;86.98;99960.78;5031496;28;20040;-71
2021/12/03 04:09:53;;;;;;;11.37;6.03;;;;;;;-2.59;87.22;99967.69;5031617;28;20048;-71
2021/12/03 04:12:19;;;;;;;14.10;5.77;;;;;;;-2.53;87.38;99967.94;5031544;28;20124;-71
2021/12/03 04:14:44;;;;;;;13.50;5.40;;;;;;;-2.49;86.54;99969.81;5031335;28;20036;-72
2021/12/03 04:17:09;;;;;;;13.60;5.53;;;;;;;-2.45;87.20;99967.41;5030344;28;20037;-72
2021/12/03 04:19:36;;;;;;;13.67;5.87;;;;;;;-2.38;87.48;99962.44;5031176;28;20073;-71
2021/12/03 04:22:02;;;;;;;11.87;5.53;;;;;;;-2.33;86.79;99972.16;5031490;28;20037;-71
2021/12/03 04:27:08;;;;;;;11.03;6.23;;;;;;;-2.31;86.28;99973.06;4980499;28;20054;-77
2021/12/03 04:29:33;;;;;;;10.93;5.70;;;;;;;-2.28;86.70;99965.44;4981513;28;20041;-77
2021/12/03 04:31:59;;;;;;;15.87;5.63;;;;;;;-2.27;86.92;99968.91;4984797;28;20504;-77
2021/12/03 04:34:24;;;;;;;11.50;6.63;;;;;;;-2.25;86.00;99965.56;4999997;28;20084;-77
2021/12/03 04:36:50;;;;;;;14.90;5.83;;;;;;;-2.28;86.47;99973.22;4991764;28;20489;-77
2021/12/03 04:39:15;;;;;;;10.03;5.90;;;;;;;-2.27;86.29;99972.38;4989191;28;20042;-77
2021/12/03 04:41:40;;;;;;;11.97;5.33;;;;;;;-2.24;86.73;99977.66;4990191;28;20559;-78
2021/12/03 04:44:06;;;;;;;10.83;5.80;;;;;;;-2.19;86.64;99971.78;4986065;28;20049;-77
2021/12/03 04:46:31;;;;;;;14.17;5.60;;;;;;;-2.14;86.84;99978.00;4996379;28;20038;-77
2021/12/03 04:48:56;;;;;;;13.07;6.37;;;;;;;-2.09;86.37;99982.50;4991150;28;20449;-77
2021/12/03 04:51:22;;;;;;;14.70;5.77;;;;;;;-2.06;86.84;99982.59;4987442;28;20041;-77
2021/12/03 04:53:47;;;;;;;14.60;6.60;;;;;;;-2.07;86.19;99985.13;4989507;28;20117;-78
2021/12/03 04:56:12;;;;;;;13.27;5.87;;;;;;;-2.05;86.57;99999.88;4984101;28;20049;-77
2021/12/03 04:58:38;;;;;;;13.70;6.57;;;;;;;-2.09;86.28;100002.31;4981523;28;20050;-77
2021/12/03 05:01:04;;;;;;;11.80;5.50;;;;;;;-2.09;86.06;100004.91;4981446;28;20046;-77
2021/12/03 05:03:29;;;;;;;10.53;5.80;;;;;;;-2.14;86.59;100009.88;4981129;28;20051;-76
2021/12/03 05:05:58;;;;;;;12.57;5.43;;;;;;;-2.17;86.26;100009.78;4985661;28;20038;-77
2021/12/03 05:08:26;;;;;;;13.60;6.43;;;;;;;-2.18;86.13;100018.34;4984149;28;20043;-77
2021/12/03 05:10:53;;;;;;;11.87;5.30;;;;;;;-2.24;86.22;100024.16;4982238;28;20079;-77
2021/12/03 05:13:21;;;;;;;14.20;5.50;;;;;;;-2.26;86.28;100023.22;4986414;28;20168;-77
2021/12/03 05:15:47;;;;;;;15.93;7.27;;;;;;;-2.32;85.83;100024.72;4981923;28;20038;-77
2021/12/03 05:18:18;;;;;;;14.13;6.10;;;;;;;-2.36;86.15;100034.03;4985052;28;20038;-77
2021/12/03 05:20:44;;;;;;;13.33;5.67;;;;;;;-2.38;86.78;100035.72;4983138;28;20038;-77
2021/12/03 05:23:10;;;;;;;11.83;6.07;;;;;;;-2.36;86.46;100034.03;4987465;28;20472;-77
2021/12/03 05:25:36;;;;;;;12.10;6.77;;;;;;;-2.44;86.45;100035.47;4982426;28;20038;-76
2021/12/03 05:28:03;;;;;;;11.77;6.43;;;;;;;-2.42;86.59;100039.88;4983980;28;20041;-76
2021/12/03 05:30:28;;;;;;;23.83;6.77;;;;;;;-2.45;86.80;100038.88;4984762;28;20097;-76
2021/12/03 05:32:54;;;;;;;15.60;7.53;;;;;;;-2.45;86.12;100049.22;4984131;28;20037;-76
2021/12/03 05:35:20;;;;;;;11.77;5.73;;;;;;;-2.45;87.24;100044.06;4986820;28;20118;-76
2021/12/03 05:37:45;;;;;;;11.93;6.03;;;;;;;-2.48;86.63;100049.13;4986006;28;20518;-77
2021/12/03 05:40:12;;;;;;;16.17;6.67;;;;;;;-2.47;86.28;100041.41;4990380;28;20085;-77
2021/12/03 05:42:39;;;;;;;14.43;6.30;;;;;;;-2.46;86.30;100044.88;4989321;28;20081;-77
2021/12/03 05:45:09;;;;;;;14.93;6.27;;;;;;;-2.47;86.93;100049.16;4985242;28;20038;-77
2021/12/03 05:47:35;;;;;;;12.53;6.67;;;;;;;-2.45;86.59;100056.97;4989603;28;20062;-77
2021/12/03 05:50:00;;;;;;;13.73;6.03;;;;;;;-2.47;86.44;100056.03;4987978;28;20126;-77
2021/12/03 05:52:26;;;;;;;12.93;6.53;;;;;;;-2.46;86.35;100055.22;4991754;28;20073;-76
2021/12/03 05:54:52;;;;;;;11.60;6.00;;;;;;;-2.48;86.43;100056.88;4990854;28;20046;-77
2021/12/03 05:57:17;;;;;;;13.03;6.20;;;;;;;-2.50;86.27;100067.13;4992836;28;20034;-77
2021/12/03 05:59:43;;;;;;;14.97;7.07;;;;;;;-2.52;86.32;100067.88;4991700;28;20034;-77
2021/12/03 06:02:08;;;;;;;28.47;16.03;;;;;;;-2.54;86.70;100069.53;4991226;28;20114;-77
2021/12/03 06:04:34;;;;;;;14.83;7.13;;;;;;;-2.51;86.78;100069.66;4993180;28;20473;-77
2021/12/03 06:06:59;;;;;;;20.23;9.77;;;;;;;-2.44;88.37;100071.66;4988118;28;20122;-77
2021/12/03 06:09:25;;;;;;;18.77;9.00;;;;;;;-2.33;87.98;100074.63;4985792;28;20047;-77
2021/12/03 06:11:50;;;;;;;13.73;7.07;;;;;;;-2.28;88.03;100074.00;4986647;28;20030;-77
2021/12/03 06:14:16;;;;;;;11.17;5.83;;;;;;;-2.28;87.43;100074.00;4986819;28;20038;-77
2021/12/03 06:16:41;;;;;;;17.93;7.17;;;;;;;-2.28;87.11;100073.09;4984853;28;20117;-77
2021/12/03 06:19:06;;;;;;;15.27;7.87;;;;;;;-2.30;87.10;100069.63;4983859;28;20039;-77
2021/12/03 06:21:32;;;;;;;18.57;7.43;;;;;;;-2.29;87.27;100071.34;4989476;28;20042;-77
2021/12/03 06:23:57;;;;;;;15.37;6.83;;;;;;;-2.29;86.46;100080.00;4985334;28;20100;-77
2021/12/03 06:26:23;;;;;;;11.30;6.93;;;;;;;-2.31;86.22;100079.03;4990048;28;20089;-77
2021/12/03 06:28:48;;;;;;;14.37;6.37;;;;;;;-2.30;87.24;100080.81;4988834;28;20137;-77
2021/12/03 06:31:13;;;;;;;13.00;6.10;;;;;;;-2.24;86.38;100085.34;4989441;28;20042;-77
2021/12/03 06:33:39;;;;;;;16.50;6.67;;;;;;;-2.14;86.80;100091.75;4987234;28;20047;-77
2021/12/03 06:36:04;;;;;;;13.73;6.40;;;;;;;-2.13;86.86;100089.19;4983433;28;20034;-77
2021/12/03 06:38:31;;;;;;;12.73;6.10;;;;;;;-2.05;85.69;100086.91;4987111;28;20030;-77
2021/12/03 06:40:57;;;;;;;13.23;6.83;;;;;;;-2.00;86.24;100090.53;4987429;28;20043;-77
2021/12/03 06:43:23;;;;;;;13.90;6.87;;;;;;;-1.96;85.23;100100.19;4989259;28;20026;-77
2021/12/03 06:45:48;;;;;;;14.43;6.07;;;;;;;-1.90;84.86;100094.38;4986550;28;20409;-77
2021/12/03 06:48:14;;;;;;;12.77;5.97;;;;;;;-1.84;84.83;100103.22;4987161;28;20121;-77
2021/12/03 06:50:39;;;;;;;13.27;6.13;;;;;;;-1.82;84.64;100101.56;4990581;28;20078;-77
2021/12/03 06:53:08;;;;;;;12.30;5.80;;;;;;;-1.79;84.72;100111.16;4989255;28;20037;-77
2021/12/03 06:55:44;;;;;;;13.93;6.67;;;;;;;-1.71;84.05;100111.44;5002970;28;20045;-77
2021/12/03 06:58:11;;;;;;;12.93;6.03;;;;;;;-1.63;84.27;100110.00;4986209;28;20042;-77
2021/12/03 07:00:36;;;;;;;11.97;6.03;;;;;;;-1.51;83.58;100118.22;4986985;28;20451;-77
2021/12/03 07:03:01;;;;;;;13.03;7.07;;;;;;;-1.39;83.35;100115.16;4992702;28;20045;-77
2021/12/03 07:05:27;;;;;;;10.67;5.67;;;;;;;-1.28;83.29;100125.88;4985814;28;20033;-77
2021/12/03 07:07:52;;;;;;;12.17;5.57;;;;;;;-1.23;82.59;100120.06;4984613;28;20177;-77
2021/12/03 07:10:18;;;;;;;12.33;5.97;;;;;;;-1.26;81.76;100122.53;4988658;28;20034;-76
2021/12/03 07:12:43;;;;;;;12.10;5.10;;;;;;;-1.28;81.77;100125.88;4985718;28;20721;-77
2021/12/03 07:15:09;;;;;;;12.53;5.17;;;;;;;-1.37;81.99;100119.56;4989489;28;20034;-77
2021/12/03 07:17:34;;;;;;;12.23;5.53;;;;;;;-1.41;81.55;100120.28;4986133;28;20027;-77
2021/12/03 07:20:01;;;;;;;11.30;4.87;;;;;;;-1.46;81.66;100121.84;4986366;28;20063;-77
2021/12/03 07:22:27;;;;;;;9.23;4.70;;;;;;;-1.51;82.03;100118.22;4986022;28;20053;-77
2021/12/03 07:24:53;;;;;;;13.37;4.60;;;;;;;-1.52;81.76;100116.44;4986566;28;20404;-77
2021/12/03 07:27:19;;;;;;;8.63;4.10;;;;;;;-1.53;82.05;100119.84;4983095;28;20030;-77
2021/12/03 07:29:47;;;;;;;9.37;3.93;;;;;;;-1.52;81.45;100125.91;4981119;28;20035;-77
2021/12/03 07:32:17;;;;;;;9.83;4.30;;;;;;;-1.49;81.94;100129.50;4983787;28;20050;-77
2021/12/03 07:34:44;;;;;;;12.50;4.67;;;;;;;-1.49;81.74;100132.09;4991719;28;20042;-78
2021/12/03 07:37:10;;;;;;;10.70;4.33;;;;;;;-1.45;81.83;100139.13;5000492;28;20472;-77
2021/12/03 07:39:36;;;;;;;9.77;4.83;;;;;;;-1.43;81.41;100131.44;4987124;28;20026;-77
2021/12/03 07:42:01;;;;;;;12.40;4.80;;;;;;;-1.39;81.10;100139.34;4988471;28;20048;-77
2021/12/03 07:44:27;;;;;;;11.70;4.40;;;;;;;-1.38;81.48;100137.66;4991224;28;20046;-77
2021/12/03 07:46:52;;;;;;;11.77;4.50;;;;;;;-1.38;81.23;100135.94;4983888;28;20167;-77
2021/12/03 07:49:19;;;;;;;11.67;4.47;;;;;;;-1.33;81.42;100139.56;4986656;28;20408;-77
2021/12/03 07:51:45;;;;;;;7.60;4.13;;;;;;;-1.26;81.01;100152.72;4978809;28;20046;-77
2021/12/03 07:54:11;;;;;;;9.83;4.27;;;;;;;-1.22;81.02;100147.72;5000786;28;20034;-77
2021/12/03 07:56:36;;;;;;;12.13;4.53;;;;;;;-1.20;80.58;100156.41;4980980;28;20030;-77
2021/12/03 07:59:04;;;;;;;9.07;4.67;;;;;;;-1.15;80.85;100161.75;4984881;28;20096;-77
2021/12/03 08:01:29;;;;;;;10.57;5.73;;;;;;;-1.12;80.76;100156.69;4984870;28;20528;-77
2021/12/03 08:03:55;;;;;;;12.30;3.97;;;;;;;-1.05;81.12;100166.41;4985864;28;20041;-77
2021/12/03 08:06:20;;;;;;;10.27;5.03;;;;;;;-0.99;80.50;100170.94;4981572;28;20049;-77
2021/12/03 08:08:46;;;;;;;13.30;5.70;;;;;;;-0.93;81.65;100174.59;4986291;28;20062;-77
2021/12/03 08:11:11;;;;;;;9.13;4.33;;;;;;;-0.84;80.34;100175.75;4987815;28;20029;-77
2021/12/03 08:13:37;;;;;;;7.37;3.50;;;;;;;-0.70;80.40;100177.97;4985774;28;20086;-77
2021/12/03 08:16:03;;;;;;;8.70;3.47;;;;;;;-0.62;79.00;100178.25;4981685;28;20038;-77
2021/12/03 08:18:28;;;;;;;6.90;3.23;;;;;;;-0.50;79.02;100178.66;4984064;28;20038;-77
2021/12/03 08:20:54;;;;;;;8.03;3.33;;;;;;;-0.37;78.65;100177.31;4982468;28;20039;-77
2021/12/03 08:23:19;;;;;;;7.60;2.70;;;;;;;-0.29;77.59;100174.97;4990214;28;20038;-77
2021/12/03 08:25:45;;;;;;;10.53;3.70;;;;;;;-0.26;77.99;100164.72;4983063;28;20038;-77
2021/12/03 08:28:11;;;;;;;9.00;3.53;;;;;;;-0.22;77.50;100163.97;4979811;28;20057;-77
2021/12/03 08:30:36;;;;;;;9.67;4.40;;;;;;;-0.12;78.46;100172.91;4983160;28;20567;-77
2021/12/03 08:33:02;;;;;;;12.40;4.83;;;;;;;-0.02;79.60;100177.56;4987620;28;20493;-77
2021/12/03 08:35:27;;;;;;;8.60;3.13;;;;;;;0.12;78.09;100175.38;4983000;28;20114;-77
2021/12/03 08:37:53;;;;;;;6.70;3.20;;;;;;;0.15;76.65;100173.75;4984728;28;20112;-77
2021/12/03 08:40:20;;;;;;;8.07;3.27;;;;;;;0.21;76.57;100173.06;4999095;28;20031;-77
2021/12/03 08:42:46;;;;;;;7.03;3.30;;;;;;;0.26;76.72;100179.25;4984261;28;20053;-77
2021/12/03 08:45:13;;;;;;;7.17;3.47;;;;;;;0.33;76.07;100181.19;4983959;28;20081;-77
2021/12/03 08:47:39;;;;;;;7.27;3.03;;;;;;;0.36;75.98;100188.19;4983087;28;20043;-77
2021/12/03 08:50:12;;;;;;;5.47;2.70;;;;;;;0.43;75.80;100191.03;4999638;28;20039;-77
2021/12/03 08:53:09;;;;;;;7.53;3.20;;;;;;;0.39;76.14;100190.88;4986972;28;20092;-77
2021/12/03 08:55:35;;;;;;;6.30;2.93;;;;;;;0.44;75.61;100179.78;4987290;28;20114;-77
2021/12/03 08:58:00;;;;;;;10.17;3.43;;;;;;;0.47;75.64;100180.72;4982605;28;20092;-77
2021/12/03 09:00:26;;;;;;;8.20;3.50;;;;;;;0.52;75.46;100179.13;4983653;28;20030;-77
2021/12/03 09:02:51;;;;;;;10.97;3.03;;;;;;;0.49;75.01;100192.03;4987587;28;20483;-77
2021/12/03 09:05:17;;;;;;;8.07;3.10;;;;;;;0.51;75.86;100185.16;4985711;28;20047;-77
2021/12/03 09:07:43;;;;;;;7.07;2.73;;;;;;;0.52;75.64;100186.91;4987806;28;20038;-77
2021/12/03 09:10:12;;;;;;;6.90;2.63;;;;;;;0.52;75.89;100186.91;4980789;28;20485;-78
2021/12/03 09:12:39;;;;;;;8.33;2.87;;;;;;;0.50;75.68;100189.50;4987498;28;20515;-77
2021/12/03 09:15:10;;;;;;;8.43;2.67;;;;;;;0.47;75.65;100201.47;4996988;28;20035;-77
2021/12/03 09:17:43;;;;;;;6.20;2.83;;;;;;;0.44;75.56;100195.34;5002203;28;20022;-77
2021/12/03 09:20:32;;;;;;;7.23;2.70;;;;;;;0.38;75.52;100194.31;4995681;28;20034;-77
2021/12/03 09:23:01;;;;;;;8.03;2.90;;;;;;;0.52;74.98;100197.31;5008548;28;20042;-77
2021/12/03 09:25:36;;;;;;;6.07;2.50;;;;;;;0.53;75.04;100191.31;4991036;28;20076;-78
2021/12/03 09:28:05;;;;;;;7.43;2.90;;;;;;;0.57;75.16;100188.81;4985747;28;20046;-77
2021/12/03 09:30:36;;;;;;;7.80;2.87;;;;;;;0.58;74.65;100181.94;4986513;28;20448;-77
2021/12/03 09:33:05;;;;;;;7.33;3.47;;;;;;;0.66;74.91;100185.63;5003460;28;20313;-77
2021/12/03 09:35:31;;;;;;;7.90;2.77;;;;;;;0.63;73.66;100176.03;4969954;28;20110;-77
2021/12/03 09:37:57;;;;;;;5.47;1.90;;;;;;;0.74;74.57;100181.50;5003027;28;20030;-77
2021/12/03 09:40:25;;;;;;;4.97;1.90;;;;;;;0.76;73.25;100186.72;4992034;28;20504;-77
2021/12/03 09:42:50;;;;;;;6.07;2.20;;;;;;;0.90;73.47;100184.53;4988539;28;20042;-77
2021/12/03 09:45:16;;;;;;;6.27;1.97;;;;;;;0.93;72.77;100189.81;5003809;28;20036;-77
2021/12/03 09:47:42;;;;;;;4.10;1.63;;;;;;;0.97;71.80;100186.44;4991327;28;20039;-77
2021/12/03 09:50:12;;;;;;;7.40;2.45;;;;;;;1.04;72.50;100188.38;4990522;28;20038;-77
2021/12/03 09:52:48;;;;;;;5.53;1.63;;;;;;;1.14;71.21;100185.19;4988961;28;20055;-77
2021/12/03 09:55:15;;;;;;;5.45;2.15;;;;;;;1.22;71.12;100187.97;4985874;28;20066;-77
2021/12/03 10:18:55;;;;;;;5.40;1.50;;;;;;;1.44;67.89;100164.28;4983649;28;20408;-77
2021/12/03 10:27:27;;;;;;;3.83;1.20;;;;;;;1.49;66.91;100153.97;4991557;28;20062;-77
2021/12/03 10:33:29;;;;;;;4.32;0.82;;;;;;;1.62;64.65;100157.75;5058459;23;20436;-75
2021/12/03 10:38:53;;;;;;;5.53;1.23;;;;;;;1.69;63.96;100157.06;5011785;28;20046;-76
2021/12/03 10:41:47;;;;;;;3.90;1.17;;;;;;;1.69;63.80;100168.34;5012525;28;20041;-76
2021/12/03 10:44:32;;;;;;;4.20;0.82;;;;;;;1.64;63.75;100156.97;4991091;28;20042;-76
2021/12/03 10:52:54;;;;;;;5.38;1.05;;;;;;;1.57;63.95;100156.78;4993007;28;20073;-77
2021/12/03 11:06:54;;;;;;;4.15;1.52;;;;;;;2.13;60.78;100134.66;4990360;28;20038;-78
2021/12/03 11:13:08;;;;;;;5.65;1.65;;;;;;;2.02;60.65;100133.53;4994286;28;20030;-78
2021/12/03 11:27:09;;;;;;;5.30;1.92;;;;;;;1.96;61.39;100136.00;4996013;28;20092;-77
2021/12/03 11:29:43;;;;;;;4.43;1.63;;;;;;;1.93;61.45;100139.41;4996932;28;20046;-77
2021/12/03 11:51:53;;;;;;;4.63;2.08;;;;;;;2.12;61.64;100125.09;4992515;28;20133;-78
2021/12/03 12:17:20;;;;;;;4.40;2.10;;;;;;;2.72;62.21;100117.59;4994384;28;20034;-78
2021/12/03 12:23:41;;;;;;;;;;;;;;;2.66;64.60;100110.53;4996042;28;20045;-77
2021/12/03 12:26:21;;;;;;;6.82;3.95;;;;;;;2.97;65.25;100109.38;4995870;28;20544;-78
2021/12/03 12:41:34;;;;;;;5.38;2.88;;;;;;;3.17;61.46;100103.63;4993788;28;20037;-78
2021/12/03 13:01:25;;;;;;;5.13;2.60;;;;;;;3.28;62.33;100087.31;5000706;28;20157;-78
2021/12/03 13:09:57;;;;;;;6.00;3.25;;;;;;;3.15;62.85;100076.66;4999716;28;20038;-78
2021/12/03 13:12:44;;;;;;;6.45;3.53;;;;;;;3.10;62.51;100073.09;5002260;28;20527;-78
2021/12/03 13:32:33;;;;;;;6.30;3.15;;;;;;;3.18;62.56;100067.16;4999901;28;20045;-77
2021/12/03 14:14:14;;;;;;;6.30;3.10;;;;;;;2.39;63.82;100066.63;4994360;28;20034;-78
2021/12/03 14:26:05;;;;;;;7.38;3.58;;;;;;;2.49;64.35;100067.66;4991244;28;20109;-77
2021/12/03 14:41:07;;;;;;;7.05;3.67;;;;;;;2.34;64.26;100063.91;4991325;28;20038;-77
2021/12/03 14:43:53;;;;;;;7.65;3.70;;;;;;;2.34;64.77;100057.84;4994270;28;20396;-77
2021/12/03 14:46:38;;;;;;;7.25;3.33;;;;;;;2.37;65.00;100063.09;4994017;28;20424;-77
2021/12/03 14:49:12;;;;;;;6.32;3.70;;;;;;;2.33;64.35;100080.41;4995685;28;20049;-77
2021/12/03 14:51:46;;;;;;;6.30;3.33;;;;;;;2.37;64.75;100073.50;4996295;28;20042;-78
2021/12/03 14:56:42;;;;;;;7.55;3.92;;;;;;;2.28;64.62;100074.22;4994090;28;20045;-76
2021/12/03 14:59:21;;;;;;;8.52;3.90;;;;;;;2.33;65.07;100072.59;4990571;28;20112;-76
2021/12/03 15:02:00;;;;;;;8.05;4.53;;;;;;;2.32;65.41;100069.94;4989072;28;20038;-75
2021/12/03 15:07:43;;;;;;;6.78;4.00;;;;;;;2.32;64.75;100070.81;4990963;28;20058;-75
2021/12/03 15:10:04;;;;;;;9.50;4.30;;;;;;;2.28;65.17;100071.63;4987424;28;20175;-76
2021/12/03 15:13:05;;;;;;;9.23;4.20;;;;;;;2.24;65.33;100084.53;4992098;28;20061;-77
2021/12/03 15:31:55;;;;;;;7.68;4.22;;;;;;;2.22;66.33;100063.66;4999482;28;20034;-78
2021/12/03 16:06:53;;;;;;;6.88;3.72;;;;;;;2.82;64.63;100046.53;4997244;28;20061;-78
2021/12/03 16:11:58;;;;;;;7.40;4.30;;;;;;;2.86;64.74;100048.38;5002718;28;20385;-78
2021/12/03 16:25:17;;;;;;;8.18;4.57;;;;;;;2.91;64.18;100031.06;4965526;28;20137;-78